Main page
METAR-TAF:

METAR-TAF

Airports :

Oil platform

Norne Fpso, Norway

latitude: 66-01-48N, longitude: 008-04-48E, elevation: 10 m

Current weather observation

The report was made 14 minutes ago, at 02:20 UTC
Wind 15 kt from the North/Northeast
Temperature 4°C
Humidity 60%
Pressure 985 hPa
Visibility 10 km or more

METAR: ENNE 080220Z AUTO 02015KT 9999NDV FEW030/// 04/M03 Q0985 W///S4

Time: 03:34 (02:34 UTC)

Forecast

The report was made 12 hours and 34 minutes ago, at 14:00 UTC
Forecast valid from 07 at 15 UTC to 07 at 18 UTC
Wind 20 kt from the North/Northwest
Visibility 10 km or more
Few clouds at a height of 1000 ft
Broken clouds at a height of 2000 ft
light rain showers
Temporary
from 07 at 15 UTC to 07 at 18 UTC
Visibility: 4000 m
Broken clouds at a height of 1200 ft, Cumulonimbus.
rain showers, small hail or snow pellets

TAF: ENNE 071400Z 0715/0718 34020KT 9999 -SHRA FEW010 BKN020 TEMPO 0715/0718 4000 SHRAGS BKN012CB

Weather observations and forecasts of more than 4000 airports (METAR and TAF reports).

The available stations are represented by yellow and red dots on the map.

Hover mouse over dot to see the name of the station.

Then click to see weather observations and forecasts.

To change the map : click on the green buttons with a black cross to zoom in, on the green button with a dash to zoom out, or on the green arrows for adjacent maps.


METAR-TAF: